createdAt,value
2017-11-27T00:02:21.587Z,74.44
2017-11-27T00:04:50.001Z,74.13
2017-11-27T00:07:18.344Z,73.99
2017-11-27T00:09:46.679Z,74.28
2017-11-27T00:12:15.861Z,74.04
2017-11-27T00:14:44.185Z,74.00
2017-11-27T00:17:12.510Z,74.16
2017-11-27T00:19:40.877Z,74.19
2017-11-27T00:22:09.217Z,73.57
2017-11-27T00:24:37.542Z,73.61
2017-11-27T00:27:05.881Z,72.98
2017-11-27T00:29:34.205Z,72.23
2017-11-27T00:32:02.539Z,73.37
2017-11-27T00:34:31.031Z,73.45
2017-11-27T00:36:59.350Z,73.51
2017-11-27T00:39:27.683Z,73.14
2017-11-27T00:41:56.032Z,73.45
2017-11-27T00:44:24.384Z,73.61
2017-11-27T00:46:53.496Z,74.27
2017-11-27T00:49:22.594Z,73.58
2017-11-27T00:51:51.668Z,73.59
2017-11-27T00:54:19.998Z,73.57
2017-11-27T00:56:48.519Z,73.37
2017-11-27T00:59:16.855Z,72.65
2017-11-27T01:01:45.199Z,72.49
2017-11-27T01:04:14.321Z,73.42
2017-11-27T01:06:42.643Z,73.64
2017-11-27T01:09:10.983Z,73.51
2017-11-27T01:11:39.369Z,73.58
2017-11-27T01:14:07.674Z,73.44
2017-11-27T01:16:35.972Z,74.76
2017-11-27T01:19:04.681Z,74.60
2017-11-27T01:21:33.771Z,75.27
2017-11-27T01:24:02.085Z,74.49
2017-11-27T01:26:30.502Z,73.96
2017-11-27T01:28:58.821Z,74.34
2017-11-27T01:31:27.120Z,74.43
2017-11-27T01:33:55.488Z,73.82
2017-11-27T01:36:23.815Z,73.96
2017-11-27T01:38:52.134Z,74.05
2017-11-27T01:41:20.578Z,74.64
2017-11-27T01:43:48.913Z,75.22
2017-11-27T01:46:17.226Z,74.69
2017-11-27T01:48:45.560Z,74.35
2017-11-27T01:51:13.901Z,75.10
2017-11-27T01:53:42.186Z,75.60
2017-11-27T01:56:10.564Z,75.09
2017-11-27T01:58:38.927Z,74.95
2017-11-27T02:01:07.263Z,74.56
2017-11-27T02:03:35.710Z,74.32
2017-11-27T02:06:04.809Z,73.70
2017-11-27T02:08:33.910Z,74.42
2017-11-27T02:11:02.281Z,75.07
2017-11-27T02:13:30.758Z,74.99
2017-11-27T02:16:00.036Z,74.76
2017-11-27T02:18:28.413Z,75.15
2017-11-27T02:20:56.722Z,76.12
2017-11-27T02:23:25.068Z,76.13
2017-11-27T02:25:53.619Z,77.27
2017-11-27T02:28:22.037Z,76.92
2017-11-27T02:30:50.418Z,76.41
2017-11-27T02:33:18.894Z,75.57
2017-11-27T02:35:47.235Z,76.04
2017-11-27T02:38:15.540Z,76.26
2017-11-27T02:40:43.916Z,75.79
2017-11-27T02:43:12.234Z,76.00
2017-11-27T02:45:40.570Z,76.58
2017-11-27T02:48:09.114Z,76.76
2017-11-27T02:50:37.478Z,77.88
2017-11-27T02:53:05.829Z,77.04
2017-11-27T02:55:34.194Z,77.22
2017-11-27T02:58:02.500Z,77.34
2017-11-27T03:00:30.817Z,77.34
2017-11-27T03:02:59.160Z,78.57
2017-11-27T03:05:27.537Z,78.19
2017-11-27T03:07:55.890Z,77.39
2017-11-27T03:10:24.498Z,77.64
2017-11-27T03:12:52.815Z,78.07
2017-11-27T03:15:21.158Z,77.65
2017-11-27T03:17:50.287Z,77.79
2017-11-27T03:20:19.464Z,77.73
2017-11-27T03:22:47.814Z,77.45
2017-11-27T03:25:16.993Z,77.86
2017-11-27T03:27:45.305Z,78.12
2017-11-27T03:30:14.478Z,78.22
2017-11-27T03:32:43.736Z,77.95
2017-11-27T03:35:12.096Z,77.99
2017-11-27T03:37:41.266Z,78.75
2017-11-27T03:40:09.652Z,78.25
2017-11-27T03:42:38.840Z,77.42
2017-11-27T03:45:07.166Z,77.19
2017-11-27T03:47:35.536Z,77.17
2017-11-27T03:50:04.640Z,78.79
2017-11-27T03:52:32.962Z,78.20
2017-11-27T03:55:01.373Z,79.30
2017-11-27T03:57:30.453Z,78.40
2017-11-27T03:59:58.762Z,78.96
2017-11-27T04:02:27.886Z,79.27
2017-11-27T04:04:56.265Z,79.33
2017-11-27T04:07:24.621Z,79.55
2017-11-27T04:09:53.802Z,79.16
2017-11-27T04:12:22.128Z,79.41
2017-11-27T04:14:50.475Z,79.19
2017-11-27T04:17:19.684Z,79.93
2017-11-27T04:19:47.993Z,79.69
2017-11-27T04:22:16.341Z,79.70
2017-11-27T04:24:44.705Z,80.37
2017-11-27T04:27:13.063Z,80.54
2017-11-27T04:29:41.404Z,79.79
2017-11-27T04:32:09.763Z,79.63
2017-11-27T04:34:38.074Z,79.54
2017-11-27T04:37:07.178Z,79.34
2017-11-27T04:39:35.874Z,78.79
2017-11-27T04:42:04.218Z,78.59
2017-11-27T04:44:32.619Z,78.17
2017-11-27T04:47:00.989Z,77.57
2017-11-27T04:49:29.352Z,79.42
2017-11-27T04:51:57.671Z,78.85
2017-11-27T04:54:26.028Z,78.29
2017-11-27T04:56:54.398Z,78.01
2017-11-27T04:59:22.691Z,78.58
2017-11-27T05:01:51.547Z,77.98
2017-11-27T05:04:19.860Z,77.67
2017-11-27T05:06:48.175Z,78.40
2017-11-27T05:09:17.300Z,78.00
2017-11-27T05:11:45.620Z,78.13
2017-11-27T05:14:13.993Z,78.76
2017-11-27T05:16:43.138Z,78.08
2017-11-27T05:19:11.478Z,77.43
2017-11-27T05:21:39.825Z,77.68
2017-11-27T05:24:08.337Z,77.39
2017-11-27T05:26:37.421Z,77.19
2017-11-27T05:29:06.525Z,77.70
2017-11-27T05:31:34.899Z,77.23
2017-11-27T05:34:03.248Z,77.42
2017-11-27T05:36:31.588Z,77.01
2017-11-27T05:39:00.741Z,77.03
2017-11-27T05:41:29.091Z,77.47
2017-11-27T05:43:57.406Z,77.05
2017-11-27T05:46:25.815Z,77.38
2017-11-27T05:48:54.124Z,77.27
2017-11-27T05:51:22.443Z,77.47
2017-11-27T05:53:51.101Z,77.14
2017-11-27T05:56:19.410Z,77.22
2017-11-27T05:58:47.774Z,77.17
2017-11-27T06:01:16.156Z,77.45
2017-11-27T06:03:44.500Z,76.50
2017-11-27T06:06:12.840Z,77.32
2017-11-27T06:08:41.423Z,77.08
2017-11-27T06:11:09.745Z,77.84
2017-11-27T06:13:38.079Z,77.03
2017-11-27T06:16:06.426Z,76.71
2017-11-27T06:18:34.774Z,77.45
2017-11-27T06:21:03.121Z,76.74
2017-11-27T06:23:31.458Z,76.48
2017-11-27T06:25:59.770Z,77.67
2017-11-27T06:28:28.071Z,77.10
2017-11-27T06:30:57.258Z,77.38
2017-11-27T06:33:25.559Z,77.85
2017-11-27T06:35:53.898Z,76.94
2017-11-27T06:38:22.244Z,76.60
2017-11-27T06:40:50.566Z,77.44
2017-11-27T06:43:18.900Z,76.89
2017-11-27T06:45:47.250Z,76.27
2017-11-27T06:48:15.563Z,76.94
2017-11-27T06:50:43.908Z,76.41
2017-11-27T06:53:12.588Z,76.42
2017-11-27T06:55:40.923Z,75.89
2017-11-27T06:58:09.264Z,76.01
2017-11-27T07:00:37.685Z,75.90
2017-11-27T07:03:06.776Z,76.15
2017-11-27T07:05:35.115Z,76.44
2017-11-27T07:08:03.477Z,76.20
2017-11-27T07:10:31.823Z,76.66
2017-11-27T07:13:00.135Z,76.31
2017-11-27T07:15:29.887Z,76.58
2017-11-27T07:17:58.249Z,76.31
2017-11-27T07:20:26.620Z,75.53
2017-11-27T07:22:55.052Z,76.17
2017-11-27T07:25:23.380Z,77.29
2017-11-27T07:27:51.676Z,77.36
2017-11-27T07:30:20.008Z,77.48
2017-11-27T07:32:48.331Z,77.28
2017-11-27T07:35:16.674Z,77.07
2017-11-27T07:37:51.302Z,77.04
2017-11-27T07:40:20.380Z,76.17
2017-11-27T07:42:48.714Z,76.79
2017-11-27T07:45:17.058Z,76.57
2017-11-27T07:47:45.401Z,76.39
2017-11-27T07:50:13.913Z,76.85
2017-11-27T07:52:43.041Z,77.82
2017-11-27T07:55:11.354Z,76.87
2017-11-27T07:57:39.667Z,76.41
2017-11-27T08:00:08.563Z,76.94
2017-11-27T08:02:36.931Z,76.21
2017-11-27T08:05:06.035Z,76.39
2017-11-27T08:07:35.182Z,76.73
2017-11-27T08:10:03.505Z,76.49
2017-11-27T08:12:31.849Z,76.13
2017-11-27T08:15:00.229Z,76.17
2017-11-27T08:17:28.575Z,77.13
2017-11-27T08:19:56.942Z,76.86
2017-11-27T08:22:25.918Z,75.51
2017-11-27T08:24:55.105Z,75.21
2017-11-27T08:27:24.207Z,75.95
2017-11-27T08:29:53.328Z,76.75
2017-11-27T08:32:21.670Z,76.15
2017-11-27T08:34:49.991Z,75.44
2017-11-27T08:37:18.357Z,75.51
2017-11-27T08:39:46.677Z,74.94
2017-11-27T08:42:15.033Z,75.52
2017-11-27T08:44:43.430Z,76.11
2017-11-27T08:47:11.749Z,75.41
2017-11-27T08:49:40.101Z,75.19
2017-11-27T08:52:08.471Z,74.41
2017-11-27T08:57:05.289Z,75.15
2017-11-27T08:59:33.673Z,75.10
2017-11-27T09:02:01.982Z,75.59
2017-11-27T09:04:30.272Z,74.88
2017-11-27T09:06:58.850Z,74.11
2017-11-27T09:09:27.186Z,73.92
2017-11-27T09:11:55.489Z,75.66
2017-11-27T09:14:23.851Z,74.19
2017-11-27T09:16:52.172Z,74.35
2017-11-27T09:19:20.506Z,74.85
2017-11-27T09:21:48.870Z,74.30
2017-11-27T09:24:17.225Z,74.33
2017-11-27T09:26:45.571Z,74.23
2017-11-27T09:29:14.190Z,74.58
2017-11-27T09:31:42.551Z,73.93
2017-11-27T09:34:10.928Z,73.42
2017-11-27T09:36:39.294Z,74.04
2017-11-27T09:39:07.627Z,73.49
2017-11-27T09:41:36.008Z,73.98
2017-11-27T09:44:04.392Z,73.05
2017-11-27T09:46:32.739Z,72.18
2017-11-27T09:49:01.077Z,72.34
2017-11-27T09:51:29.497Z,73.03
2017-11-27T09:53:57.850Z,73.27
2017-11-27T09:56:26.192Z,73.35
2017-11-27T09:58:54.538Z,73.82
2017-11-27T10:01:22.858Z,73.36
2017-11-27T10:03:51.190Z,72.45
2017-11-27T10:06:19.569Z,72.74
2017-11-27T10:08:48.700Z,74.04
2017-11-27T10:11:17.063Z,74.88
2017-11-27T10:13:45.591Z,74.47
2017-11-27T10:16:13.922Z,75.55
2017-11-27T10:18:43.034Z,74.94
2017-11-27T10:21:11.405Z,75.31
2017-11-27T10:23:39.763Z,75.99
2017-11-27T10:26:08.980Z,76.50
2017-11-27T10:28:37.366Z,75.14
2017-11-27T10:31:06.462Z,75.18
2017-11-27T10:33:34.806Z,74.61
2017-11-27T10:36:03.243Z,76.67
2017-11-27T10:38:31.598Z,77.87
2017-11-27T10:40:59.951Z,77.76
2017-11-27T10:43:29.053Z,77.51
2017-11-27T10:45:57.415Z,78.35
2017-11-27T10:48:25.798Z,78.71
2017-11-27T10:50:54.174Z,79.31
2017-11-27T10:53:22.525Z,79.99
2017-11-27T10:55:50.830Z,78.98
2017-11-27T10:58:19.850Z,79.07
2017-11-27T11:00:54.413Z,80.27
2017-11-27T11:03:22.746Z,80.61
2017-11-27T11:05:51.068Z,80.41
2017-11-27T11:08:19.414Z,79.91
2017-11-27T11:10:48.518Z,80.51
2017-11-27T11:13:16.859Z,81.37
2017-11-27T11:15:45.174Z,81.81
2017-11-27T11:18:13.819Z,81.36
2017-11-27T11:20:42.184Z,81.04
2017-11-27T11:23:10.519Z,81.71
2017-11-27T11:25:38.885Z,81.52
2017-11-27T11:28:07.216Z,82.79
2017-11-27T11:30:35.531Z,81.55
2017-11-27T11:33:04.689Z,81.57
2017-11-27T11:35:33.026Z,81.78
2017-11-27T11:38:01.411Z,82.33
2017-11-27T11:40:30.173Z,81.92
2017-11-27T11:42:58.481Z,81.70
2017-11-27T11:45:26.813Z,81.67
2017-11-27T11:47:55.169Z,82.09
2017-11-27T11:50:23.473Z,82.48
2017-11-27T11:52:51.801Z,81.29
2017-11-27T11:55:20.139Z,82.27
2017-11-27T11:57:48.477Z,81.50
2017-11-27T12:00:16.778Z,83.05
2017-11-27T12:02:45.295Z,82.81
2017-11-27T12:05:13.610Z,82.92
2017-11-27T12:07:41.912Z,82.84
2017-11-27T12:10:10.309Z,82.76
2017-11-27T12:12:38.658Z,83.31
2017-11-27T12:15:07.740Z,82.81
2017-11-27T12:17:36.136Z,83.18
2017-11-27T12:20:04.491Z,82.91
2017-11-27T12:22:32.804Z,83.25
2017-11-27T12:25:01.357Z,82.63
2017-11-27T12:27:29.663Z,82.09
2017-11-27T12:29:57.988Z,81.66
2017-11-27T12:32:26.339Z,82.50
2017-11-27T12:34:55.472Z,82.39
2017-11-27T12:37:23.806Z,83.30
2017-11-27T12:39:52.183Z,83.32
2017-11-27T12:42:20.493Z,83.12
2017-11-27T12:44:48.830Z,82.87
2017-11-27T12:47:17.271Z,82.61
2017-11-27T12:49:45.593Z,82.48
2017-11-27T12:52:13.904Z,82.39
2017-11-27T12:54:42.273Z,83.28
2017-11-27T12:57:10.660Z,83.98
2017-11-27T12:59:38.991Z,84.63
2017-11-27T13:02:07.337Z,84.43
2017-11-27T13:04:35.644Z,83.73
2017-11-27T13:07:04.042Z,84.14
2017-11-27T13:09:33.374Z,84.16
2017-11-27T13:12:02.451Z,85.01
2017-11-27T13:14:30.781Z,83.84
2017-11-27T13:16:59.124Z,83.70
2017-11-27T13:19:27.453Z,83.52
2017-11-27T13:21:55.928Z,82.89
2017-11-27T13:24:24.253Z,82.78
2017-11-27T13:26:52.565Z,84.09
2017-11-27T13:29:21.021Z,83.47
2017-11-27T13:31:50.417Z,83.78
2017-11-27T13:34:19.782Z,83.55
2017-11-27T13:36:48.882Z,83.50
2017-11-27T13:39:17.262Z,84.00
2017-11-27T13:41:45.573Z,83.59
2017-11-27T13:44:14.654Z,83.09
2017-11-27T13:46:42.988Z,83.62
2017-11-27T13:49:11.318Z,83.53
2017-11-27T13:51:39.662Z,83.88
2017-11-27T13:54:08.391Z,83.55
2017-11-27T13:56:36.741Z,83.24
2017-11-27T13:59:05.066Z,83.86
2017-11-27T14:01:34.180Z,83.44
2017-11-27T14:04:02.520Z,83.92
2017-11-27T14:06:31.590Z,84.59
2017-11-27T14:08:59.954Z,83.76
2017-11-27T14:11:28.315Z,84.07
2017-11-27T14:13:56.643Z,83.72
2017-11-27T14:16:25.157Z,83.68
2017-11-27T14:18:53.522Z,83.80
2017-11-27T14:21:22.606Z,83.56
2017-11-27T14:23:50.970Z,83.63
2017-11-27T14:26:19.342Z,84.22
2017-11-27T14:28:48.441Z,84.54
2017-11-27T14:31:16.865Z,84.36
2017-11-27T14:33:45.972Z,84.53
2017-11-27T14:36:14.329Z,84.45
2017-11-27T14:38:43.527Z,84.88
2017-11-27T14:41:11.900Z,85.33
2017-11-27T14:43:41.047Z,85.05
2017-11-27T14:46:09.362Z,84.45
2017-11-27T14:48:37.681Z,83.82
2017-11-27T14:51:06.016Z,84.55
2017-11-27T14:53:34.386Z,84.86
2017-11-27T14:56:02.719Z,84.33
2017-11-27T14:58:31.057Z,84.37
2017-11-27T15:00:59.881Z,86.30
2017-11-27T15:03:28.203Z,86.71
2017-11-27T15:05:56.542Z,86.55
2017-11-27T15:08:24.869Z,86.38
2017-11-27T15:10:53.166Z,86.37
2017-11-27T15:13:22.284Z,86.32
2017-11-27T15:15:51.698Z,86.38
2017-11-27T15:18:20.249Z,86.16
2017-11-27T15:20:48.659Z,86.45
2017-11-27T15:23:17.473Z,86.72
2017-11-27T15:25:45.953Z,86.23
2017-11-27T15:28:14.261Z,87.31
2017-11-27T15:30:42.674Z,86.17
2017-11-27T15:33:11.029Z,87.24
2017-11-27T15:35:39.434Z,86.28
2017-11-27T15:38:07.766Z,87.14
2017-11-27T15:40:36.125Z,86.85
2017-11-27T15:43:04.480Z,86.88
2017-11-27T15:45:33.369Z,86.45
2017-11-27T15:48:01.742Z,86.55
2017-11-27T15:50:30.126Z,86.05
2017-11-27T15:52:58.497Z,86.12
2017-11-27T15:55:27.593Z,85.94
2017-11-27T15:57:56.825Z,85.74
2017-11-27T16:00:25.194Z,86.05
2017-11-27T16:02:53.514Z,85.11
2017-11-27T16:05:21.821Z,85.67
2017-11-27T16:07:51.114Z,85.93
2017-11-27T16:10:19.461Z,86.04
2017-11-27T16:12:47.820Z,86.08
2017-11-27T16:15:16.187Z,85.74
2017-11-27T16:17:44.577Z,85.76
2017-11-27T16:20:12.902Z,86.38
2017-11-27T16:22:41.263Z,86.91
2017-11-27T16:25:09.609Z,86.38
2017-11-27T16:27:37.953Z,86.48
2017-11-27T16:30:06.372Z,86.46
2017-11-27T16:32:34.686Z,86.73
2017-11-27T16:35:03.006Z,86.25
2017-11-27T16:37:31.339Z,85.35
2017-11-27T16:39:59.673Z,86.47
2017-11-27T16:42:28.012Z,86.13
2017-11-27T16:44:57.132Z,86.50
2017-11-27T16:47:25.447Z,86.73
2017-11-27T16:49:53.743Z,86.04
2017-11-27T16:52:22.284Z,85.46
2017-11-27T16:54:50.619Z,85.33
2017-11-27T16:57:18.951Z,84.85
2017-11-27T16:59:47.456Z,85.39
2017-11-27T17:02:15.841Z,85.64
2017-11-27T17:04:44.160Z,85.79
2017-11-27T17:07:12.917Z,85.29
2017-11-27T17:09:41.268Z,85.60
2017-11-27T17:12:09.584Z,85.81
2017-11-27T17:14:38.202Z,85.72
2017-11-27T17:17:06.530Z,85.70
2017-11-27T17:19:34.862Z,85.00
2017-11-27T17:22:03.209Z,85.09
2017-11-27T17:24:32.315Z,84.88
2017-11-27T17:27:01.410Z,84.45
2017-11-27T17:29:30.558Z,85.11
2017-11-27T17:31:58.907Z,85.81
2017-11-27T17:34:27.261Z,86.16
2017-11-27T17:36:56.446Z,85.62
2017-11-27T17:39:24.809Z,85.16
2017-11-27T17:41:53.344Z,85.24
2017-11-27T17:44:21.719Z,85.30
2017-11-27T17:46:50.071Z,84.48
2017-11-27T17:49:18.402Z,84.66
2017-11-27T17:51:46.770Z,84.86
2017-11-27T17:54:15.128Z,84.70
2017-11-27T17:56:44.248Z,85.30
2017-11-27T17:59:12.966Z,84.97
2017-11-27T18:01:41.309Z,85.33
2017-11-27T18:04:09.614Z,85.41
2017-11-27T18:06:41.159Z,86.01
2017-11-27T18:09:09.636Z,85.11
2017-11-27T18:11:38.095Z,84.62
2017-11-27T18:14:06.474Z,85.49
2017-11-27T18:16:36.461Z,84.89
2017-11-27T18:19:04.802Z,84.12
2017-11-27T18:21:33.532Z,83.64
2017-11-27T18:24:02.650Z,83.42
2017-11-27T18:26:31.024Z,83.54
2017-11-27T18:28:59.511Z,82.81
2017-11-27T18:31:27.836Z,83.87
2017-11-27T18:33:56.145Z,83.38
2017-11-27T18:36:25.260Z,83.56
2017-11-27T18:38:54.444Z,83.92
2017-11-27T18:41:23.570Z,83.75
2017-11-27T18:43:52.043Z,84.30
2017-11-27T18:46:20.944Z,83.71
2017-11-27T18:48:49.352Z,83.39
2017-11-27T18:51:17.699Z,84.48
2017-11-27T18:53:46.067Z,84.56
2017-11-27T18:56:14.833Z,84.08
2017-11-27T18:58:43.313Z,85.06
2017-11-27T19:01:11.662Z,84.67
2017-11-27T19:03:39.989Z,84.23
2017-11-27T19:06:08.528Z,84.34
2017-11-27T19:08:36.883Z,84.03
2017-11-27T19:11:05.207Z,84.37
2017-11-27T19:13:33.575Z,83.45
2017-11-27T19:16:01.956Z,84.20
2017-11-27T19:18:30.299Z,84.78
2017-11-27T19:20:58.677Z,83.76
2017-11-27T19:23:27.809Z,83.63
2017-11-27T19:25:56.155Z,83.05
2017-11-27T19:28:24.745Z,82.53
2017-11-27T19:30:53.089Z,82.55
2017-11-27T19:33:21.432Z,83.23
2017-11-27T19:35:49.814Z,82.39
2017-11-27T19:38:18.155Z,82.96
2017-11-27T19:40:46.709Z,84.07
2017-11-27T19:43:15.078Z,84.36
2017-11-27T19:45:44.205Z,83.42
2017-11-27T19:48:12.554Z,83.96
2017-11-27T19:50:41.822Z,83.83
2017-11-27T19:53:10.203Z,84.64
2017-11-27T19:55:38.561Z,84.23
2017-11-27T19:58:06.927Z,85.02
2017-11-27T20:00:35.349Z,85.03
2017-11-27T20:03:03.704Z,84.18
2017-11-27T20:05:32.076Z,83.81
2017-11-27T20:08:00.429Z,83.10
2017-11-27T20:10:28.760Z,81.84
2017-11-27T20:12:57.190Z,81.24
2017-11-27T20:15:25.501Z,80.99
2017-11-27T20:17:54.014Z,81.58
2017-11-27T20:20:23.138Z,81.49
2017-11-27T20:22:51.522Z,82.49
2017-11-27T20:25:19.877Z,84.00
2017-11-27T20:27:48.984Z,82.89
2017-11-27T20:30:17.349Z,83.18
2017-11-27T20:32:45.706Z,82.23
2017-11-27T20:35:14.443Z,81.44
2017-11-27T20:37:44.409Z,81.50
2017-11-27T20:40:12.769Z,83.78
2017-11-27T20:42:41.229Z,83.30
2017-11-27T20:45:09.651Z,83.25
2017-11-27T20:47:37.996Z,83.32
2017-11-27T20:50:06.338Z,83.01
2017-11-27T20:52:35.559Z,83.16
2017-11-27T20:55:03.957Z,83.36
2017-11-27T20:57:32.563Z,84.14
2017-11-27T21:00:01.662Z,84.46
2017-11-27T21:02:30.905Z,83.38
2017-11-27T21:04:59.792Z,82.94
2017-11-27T21:07:28.147Z,82.88
2017-11-27T21:09:56.473Z,82.26
2017-11-27T21:12:25.093Z,82.46
2017-11-27T21:14:53.422Z,79.29
2017-11-27T21:17:21.749Z,77.19
2017-11-27T21:19:50.172Z,77.39
2017-11-27T21:22:19.404Z,77.82
2017-11-27T21:24:47.740Z,77.97
2017-11-27T21:27:16.835Z,77.74
2017-11-27T21:29:45.147Z,78.22
2017-11-27T21:32:13.487Z,79.25
2017-11-27T21:34:41.875Z,79.17
2017-11-27T21:37:10.212Z,79.35
2017-11-27T21:39:38.550Z,78.57
2017-11-27T21:42:06.971Z,77.96
2017-11-27T21:44:35.287Z,77.55
2017-11-27T21:47:03.624Z,77.74
2017-11-27T21:49:31.951Z,77.53
2017-11-27T21:52:01.032Z,76.78
2017-11-27T21:54:29.386Z,77.49
2017-11-27T21:56:57.863Z,77.03
2017-11-27T21:59:26.814Z,78.12
2017-11-27T22:01:55.193Z,78.68
2017-11-27T22:04:23.666Z,78.95
2017-11-27T22:06:52.078Z,79.50
2017-11-27T22:09:20.426Z,79.68
2017-11-27T22:11:49.555Z,80.30
2017-11-27T22:14:17.948Z,81.73
2017-11-27T22:16:46.381Z,81.89
2017-11-27T22:19:14.727Z,81.05
2017-11-27T22:21:43.024Z,80.69
2017-11-27T22:24:12.139Z,81.11
2017-11-27T22:26:40.589Z,81.10
2017-11-27T22:29:09.898Z,80.91
2017-11-27T22:31:39.002Z,81.77
2017-11-27T22:34:08.350Z,82.60
2017-11-27T22:36:36.690Z,82.64
2017-11-27T22:39:05.045Z,81.91
2017-11-27T22:41:33.428Z,81.60
2017-11-27T22:44:03.453Z,81.02
2017-11-27T22:46:32.559Z,80.84
2017-11-27T22:49:00.994Z,81.19
2017-11-27T22:51:30.142Z,81.52
2017-11-27T22:53:58.473Z,80.69
2017-11-27T22:56:26.836Z,80.32
2017-11-27T22:58:55.172Z,80.63
2017-11-27T23:01:23.519Z,80.54
2017-11-27T23:03:52.032Z,79.87
2017-11-27T23:06:20.371Z,80.48
2017-11-27T23:08:48.717Z,79.36
2017-11-27T23:11:17.737Z,79.94
2017-11-27T23:13:47.791Z,79.02
2017-11-27T23:16:16.121Z,79.14
2017-11-27T23:18:44.469Z,79.66
2017-11-27T23:21:13.265Z,80.21
2017-11-27T23:23:41.607Z,79.48
2017-11-27T23:26:09.949Z,79.17
2017-11-27T23:28:38.666Z,79.51
2017-11-27T23:31:07.016Z,79.94
2017-11-27T23:33:35.516Z,79.52
2017-11-27T23:36:03.845Z,80.18
2017-11-27T23:38:32.182Z,80.76
2017-11-27T23:41:00.540Z,80.89
2017-11-27T23:43:28.917Z,81.52
2017-11-27T23:45:57.227Z,82.37
2017-11-27T23:48:25.600Z,81.92
2017-11-27T23:50:54.442Z,82.20
2017-11-27T23:53:22.736Z,82.08
2017-11-27T23:55:51.217Z,82.77
2017-11-27T23:58:20.093Z,82.58
